Time;durP1;ratioP1;P1;durP2;ratioP2;P2;SDS_P1;SDS_P2;PMS_P1;PMS_P2;Temp;Humidity;BMP_temperature;BMP_pressure;BME280_temperature;BME280_humidity;BME280_pressure;Samples;Min_cycle;Max_cycle;Signal;HPM_P1;HPM_P2
2022/12/27 00:01:49;;;;;;;3.13;2.33;;;;;;;;;;5056403;28;20110;-28
2022/12/27 00:04:16;;;;;;;2.15;1.67;;;;;;;;;;5056341;28;20060;-28
2022/12/27 00:06:42;;;;;;;2.28;1.90;;;;;;;;;;5056724;28;20403;-27
2022/12/27 00:09:08;;;;;;;2.55;2.35;;;;;;;;;;5056427;28;20028;-28
2022/12/27 00:11:35;;;;;;;2.30;2.10;;;;;;;;;;5056571;28;20029;-27
2022/12/27 00:14:02;;;;;;;2.08;1.98;;;;;;;;;;5056228;28;20020;-28
2022/12/27 00:16:28;;;;;;;2.33;2.13;;;;;;;;;;5056526;28;20452;-28
2022/12/27 00:18:54;;;;;;;2.13;1.98;;;;;;;;;;5056250;28;20529;-28
2022/12/27 00:21:21;;;;;;;2.40;2.20;;;;;;;;;;5056165;28;20108;-27
2022/12/27 00:23:48;;;;;;;2.42;1.92;;;;;;;;;;5056100;28;20027;-27
2022/12/27 00:26:16;;;;;;;2.53;2.30;;;;;;;;;;5056086;28;20403;-28
2022/12/27 00:28:42;;;;;;;2.08;1.85;;;;;;;;;;5056017;28;20025;-28
2022/12/27 00:31:09;;;;;;;2.03;1.88;;;;;;;;;;5055969;28;20104;-28
2022/12/27 00:33:36;;;;;;;2.10;2.00;;;;;;;;;;5055799;28;20024;-28
2022/12/27 00:36:03;;;;;;;2.10;1.90;;;;;;;;;;5055898;28;20444;-28
2022/12/27 00:38:30;;;;;;;2.22;2.10;;;;;;;;;;5056107;28;20033;-28
2022/12/27 00:40:56;;;;;;;2.85;1.88;;;;;;;;;;5054831;28;20021;-27
2022/12/27 00:43:23;;;;;;;2.03;1.92;;;;;;;;;;5055041;28;20096;-28
2022/12/27 00:45:49;;;;;;;2.70;2.13;;;;;;;;;;5055667;28;20106;-28
2022/12/27 00:48:15;;;;;;;2.42;2.22;;;;;;;;;;5055646;28;20021;-28
2022/12/27 00:50:42;;;;;;;2.20;2.00;;;;;;;;;;5055654;28;20036;-27
2022/12/27 00:53:09;;;;;;;2.20;1.92;;;;;;;;;;5054477;28;20029;-28
2022/12/27 00:55:35;;;;;;;1.58;1.48;;;;;;;;;;5055778;28;20347;-28
2022/12/27 00:58:02;;;;;;;2.45;2.25;;;;;;;;;;5055774;28;20051;-28
2022/12/27 01:00:28;;;;;;;3.28;2.55;;;;;;;;;;5055694;28;20104;-27
2022/12/27 01:02:54;;;;;;;2.08;1.98;;;;;;;;;;5054152;28;20084;-28
2022/12/27 01:05:21;;;;;;;3.15;2.60;;;;;;;;;;5055343;28;20464;-27
2022/12/27 01:07:47;;;;;;;2.17;2.08;;;;;;;;;;5055348;28;20025;-27
2022/12/27 01:10:13;;;;;;;2.00;1.90;;;;;;;;;;5055258;28;20039;-28
2022/12/27 01:12:40;;;;;;;1.77;1.50;;;;;;;;;;5055013;28;20116;-28
2022/12/27 01:15:07;;;;;;;1.88;1.77;;;;;;;;;;5055195;28;20028;-28
2022/12/27 01:17:33;;;;;;;1.90;1.80;;;;;;;;;;5055139;28;20100;-28
2022/12/27 01:19:59;;;;;;;2.35;2.15;;;;;;;;;;5055086;28;20029;-27
2022/12/27 01:22:25;;;;;;;1.80;1.70;;;;;;;;;;5054907;28;20025;-29
2022/12/27 01:24:51;;;;;;;2.13;2.00;;;;;;;;;;5055245;28;20025;-28
2022/12/27 01:27:18;;;;;;;2.05;1.83;;;;;;;;;;5054971;28;20352;-28
2022/12/27 01:29:44;;;;;;;2.53;2.33;;;;;;;;;;5054949;28;20029;-27
2022/12/27 01:32:10;;;;;;;2.15;2.03;;;;;;;;;;5054723;28;20460;-28
2022/12/27 01:34:36;;;;;;;3.25;2.20;;;;;;;;;;5054791;28;20021;-28
2022/12/27 01:37:02;;;;;;;2.33;2.13;;;;;;;;;;5054757;28;20057;-28
2022/12/27 01:39:28;;;;;;;3.20;2.90;;;;;;;;;;5055044;28;20175;-27
2022/12/27 01:44:45;;;;;;;2.00;1.80;;;;;;;;;;5054797;28;20031;-28
2022/12/27 01:47:11;;;;;;;2.95;2.72;;;;;;;;;;5054686;28;20063;-28
2022/12/27 01:49:50;;;;;;;2.70;2.50;;;;;;;;;;5053650;28;20049;-28
2022/12/27 01:52:17;;;;;;;1.92;1.73;;;;;;;;;;5054728;28;20037;-27
2022/12/27 01:54:43;;;;;;;2.20;2.10;;;;;;;;;;5054599;28;20036;-28
2022/12/27 01:57:10;;;;;;;2.08;1.98;;;;;;;;;;5054775;28;20071;-27
2022/12/27 01:59:36;;;;;;;2.05;1.50;;;;;;;;;;5054749;28;20082;-28
2022/12/27 02:02:02;;;;;;;1.67;1.58;;;;;;;;;;5054398;28;20037;-28
2022/12/27 02:04:30;;;;;;;2.83;2.50;;;;;;;;;;5054469;28;20051;-28
2022/12/27 02:06:57;;;;;;;2.50;2.20;;;;;;;;;;5054697;28;20021;-27
2022/12/27 02:09:28;;;;;;;1.63;1.52;;;;;;;;;;5054414;28;20502;-28
2022/12/27 02:11:57;;;;;;;2.20;2.10;;;;;;;;;;5054209;28;20448;-28
2022/12/27 02:14:31;;;;;;;2.10;1.92;;;;;;;;;;5054615;28;20029;-27
2022/12/27 02:16:58;;;;;;;2.00;1.90;;;;;;;;;;5053390;28;20044;-27
2022/12/27 02:19:33;;;;;;;2.35;2.10;;;;;;;;;;5053313;28;20028;-27
2022/12/27 02:21:59;;;;;;;1.95;1.85;;;;;;;;;;5054512;28;20364;-28
2022/12/27 02:24:37;;;;;;;4.25;2.03;;;;;;;;;;5054565;28;20029;-28
2022/12/27 02:27:22;;;;;;;1.67;1.58;;;;;;;;;;5054478;28;20033;-28
2022/12/27 02:30:20;;;;;;;1.90;1.77;;;;;;;;;;5054214;28;20025;-28
2022/12/27 02:33:05;;;;;;;2.35;2.15;;;;;;;;;;5021155;28;20048;-28
2022/12/27 02:35:46;;;;;;;2.25;2.05;;;;;;;;;;5054464;28;20418;-27
2022/12/27 02:38:15;;;;;;;3.42;2.25;;;;;;;;;;5054196;28;20021;-27
2022/12/27 02:55:18;;;;;;;2.70;1.85;;;;;;;;;;5054372;28;20044;-28
2022/12/27 02:58:02;;;;;;;1.80;1.70;;;;;;;;;;5053512;28;20539;-28
2022/12/27 03:03:25;;;;;;;1.92;1.83;;;;;;;;;;5053862;28;20105;-28
2022/12/27 03:06:38;;;;;;;2.22;2.03;;;;;;;;;;5054192;28;20360;-27
2022/12/27 03:08:56;;;;;;;2.30;1.92;;;;;;;;;;5057476;28;20114;-28
2022/12/27 03:17:10;;;;;;;3.15;2.22;;;;;;;;;;5057744;28;20075;-28
2022/12/27 03:25:27;;;;;;;2.88;2.28;;;;;;;;;;5057607;28;20098;-28
2022/12/27 03:33:48;;;;;;;1.95;1.80;;;;;;;;;;5057302;28;20383;-28
2022/12/27 03:39:16;;;;;;;2.20;1.70;;;;;;;;;;5057087;28;20102;-28
2022/12/27 03:44:31;;;;;;;2.58;2.33;;;;;;;;;;5057530;28;20063;-27
2022/12/27 03:46:59;;;;;;;1.80;1.63;;;;;;;;;;5055901;28;20441;-28
2022/12/27 03:49:34;;;;;;;2.03;1.92;;;;;;;;;;5056740;28;20013;-27
2022/12/27 03:52:14;;;;;;;2.03;1.90;;;;;;;;;;5056579;28;20037;-28
2022/12/27 03:54:42;;;;;;;1.70;1.60;;;;;;;;;;5057069;28;20124;-27
2022/12/27 03:57:13;;;;;;;2.22;1.98;;;;;;;;;;5056623;28;20456;-28
2022/12/27 03:59:39;;;;;;;;;;;;;;;;;;5057065;28;20082;-28
2022/12/27 04:02:06;;;;;;;1.60;1.50;;;;;;;;;;5055436;28;19947;-27
2022/12/27 04:04:32;;;;;;;2.17;1.95;;;;;;;;;;5056530;28;20054;-27
2022/12/27 04:06:59;;;;;;;2.20;2.00;;;;;;;;;;5056710;28;20082;-27
2022/12/27 04:36:53;;;;;;;1.77;1.67;;;;;;;;;;5056082;28;20593;-28
2022/12/27 04:39:20;;;;;;;2.33;2.00;;;;;;;;;;5056096;28;20025;-28
2022/12/27 04:55:32;;;;;;;1.92;1.83;;;;;;;;;;5055760;28;20036;-28
2022/12/27 04:57:58;;;;;;;2.10;1.90;;;;;;;;;;5055672;28;20371;-28
2022/12/27 05:03:15;;;;;;;2.88;2.20;;;;;;;;;;5055295;28;20122;-28
2022/12/27 05:05:42;;;;;;;2.03;1.77;;;;;;;;;;5055488;28;20376;-28
2022/12/27 05:16:23;;;;;;;2.25;2.05;;;;;;;;;;5055197;28;20039;-28
2022/12/27 05:18:49;;;;;;;1.80;1.70;;;;;;;;;;5054703;28;20079;-28
2022/12/27 05:21:15;;;;;;;1.90;1.80;;;;;;;;;;5055495;28;20039;-28
2022/12/27 05:26:27;;;;;;;2.28;2.00;;;;;;;;;;5054582;28;20513;-27
2022/12/27 05:28:55;;;;;;;5.15;2.65;;;;;;;;;;5054309;28;20032;-30
2022/12/27 05:31:22;;;;;;;1.90;1.77;;;;;;;;;;5054590;28;20037;-28
2022/12/27 05:33:49;;;;;;;2.72;2.20;;;;;;;;;;5054379;28;20029;-28
2022/12/27 05:36:15;;;;;;;3.58;1.75;;;;;;;;;;5054290;28;20021;-29
2022/12/27 05:38:41;;;;;;;2.35;2.15;;;;;;;;;;5053122;28;20025;-28
2022/12/27 05:41:07;;;;;;;3.30;1.67;;;;;;;;;;5054305;28;20029;-28
2022/12/27 05:43:34;;;;;;;4.10;1.90;;;;;;;;;;5054011;28;20032;-28
2022/12/27 05:46:04;;;;;;;4.40;1.85;;;;;;;;;;5054053;28;20037;-28
2022/12/27 05:48:30;;;;;;;2.17;2.00;;;;;;;;;;5054413;28;20029;-29
2022/12/27 05:50:56;;;;;;;3.92;1.75;;;;;;;;;;5054322;28;20039;-28
2022/12/27 05:53:23;;;;;;;2.15;1.92;;;;;;;;;;5054451;28;20337;-28
2022/12/27 05:55:56;;;;;;;1.88;1.58;;;;;;;;;;5054282;28;20028;-28
2022/12/27 05:58:22;;;;;;;2.25;2.05;;;;;;;;;;5054190;28;20044;-28
2022/12/27 06:00:48;;;;;;;3.97;2.33;;;;;;;;;;5054305;28;20036;-28
2022/12/27 06:03:14;;;;;;;3.35;1.92;;;;;;;;;;5053073;28;20068;-28
2022/12/27 06:05:40;;;;;;;1.83;1.73;;;;;;;;;;5054637;28;20028;-29
2022/12/27 06:08:08;;;;;;;2.45;1.73;;;;;;;;;;5054308;28;20104;-29
2022/12/27 06:10:34;;;;;;;2.17;1.83;;;;;;;;;;5054194;28;20039;-28
2022/12/27 06:13:01;;;;;;;2.42;1.80;;;;;;;;;;5054093;28;20033;-28
2022/12/27 06:15:27;;;;;;;6.22;2.13;;;;;;;;;;5054078;28;20091;-29
2022/12/27 06:17:53;;;;;;;7.70;1.70;;;;;;;;;;5053903;28;20065;-28
2022/12/27 06:20:20;;;;;;;7.43;1.80;;;;;;;;;;5054063;28;20028;-28
2022/12/27 06:22:46;;;;;;;3.05;2.28;;;;;;;;;;5054009;28;20035;-28
2022/12/27 06:25:13;;;;;;;1.63;1.52;;;;;;;;;;5053943;28;20099;-28
2022/12/27 06:27:39;;;;;;;2.70;2.20;;;;;;;;;;5053906;28;20060;-28
2022/12/27 06:30:06;;;;;;;2.38;2.17;;;;;;;;;;5054043;28;20471;-28
2022/12/27 06:32:33;;;;;;;2.53;2.00;;;;;;;;;;5054022;28;20040;-28
2022/12/27 06:34:59;;;;;;;10.27;3.25;;;;;;;;;;5053990;28;20029;-28
2022/12/27 06:37:25;;;;;;;5.20;2.58;;;;;;;;;;5052791;28;20032;-28
2022/12/27 06:39:51;;;;;;;3.38;2.22;;;;;;;;;;5053663;28;20059;-27
2022/12/27 06:42:17;;;;;;;4.35;1.90;;;;;;;;;;5056156;28;20053;-28
2022/12/27 06:44:44;;;;;;;2.28;2.00;;;;;;;;;;5057754;28;20032;-28
2022/12/27 06:47:10;;;;;;;2.60;1.90;;;;;;;;;;5057996;28;20463;-27
2022/12/27 06:49:36;;;;;;;4.75;2.00;;;;;;;;;;5057807;28;20028;-28
2022/12/27 06:52:02;;;;;;;2.35;2.00;;;;;;;;;;5057666;28;20455;-28
2022/12/27 06:54:29;;;;;;;2.80;2.08;;;;;;;;;;5058005;28;20035;-28
2022/12/27 06:56:55;;;;;;;1.63;1.52;;;;;;;;;;5057926;28;20036;-27
2022/12/27 06:59:22;;;;;;;4.15;2.28;;;;;;;;;;5057627;28;20100;-28
2022/12/27 07:01:48;;;;;;;2.15;1.95;;;;;;;;;;5057489;28;20025;-28
2022/12/27 07:04:14;;;;;;;4.43;2.20;;;;;;;;;;5057328;28;20041;-28
2022/12/27 07:06:40;;;;;;;5.20;2.13;;;;;;;;;;5057511;28;20021;-28
2022/12/27 07:09:07;;;;;;;2.95;1.92;;;;;;;;;;5057742;28;20443;-28
2022/12/27 07:11:34;;;;;;;3.92;1.80;;;;;;;;;;5058027;28;20091;-27
2022/12/27 07:14:01;;;;;;;6.93;2.25;;;;;;;;;;5057222;28;20444;-28
2022/12/27 07:16:28;;;;;;;2.90;2.22;;;;;;;;;;5057519;28;20111;-39
2022/12/27 07:18:55;;;;;;;5.93;1.73;;;;;;;;;;5056348;28;20067;-28
2022/12/27 07:21:22;;;;;;;2.67;1.98;;;;;;;;;;5057418;28;20029;-28
2022/12/27 07:23:49;;;;;;;4.88;1.92;;;;;;;;;;5057102;28;20113;-28
2022/12/27 07:26:17;;;;;;;5.22;1.90;;;;;;;;;;5057124;28;20428;-29
2022/12/27 07:28:43;;;;;;;9.00;2.42;;;;;;;;;;5058054;28;20029;-28
2022/12/27 07:31:10;;;;;;;6.85;2.40;;;;;;;;;;5057258;28;20036;-28
2022/12/27 07:33:37;;;;;;;6.43;1.90;;;;;;;;;;5056834;28;20025;-27
2022/12/27 07:36:04;;;;;;;3.72;1.75;;;;;;;;;;5056912;28;20033;-28
2022/12/27 07:38:30;;;;;;;6.78;2.28;;;;;;;;;;5056847;28;20036;-28
2022/12/27 07:41:00;;;;;;;4.45;2.38;;;;;;;;;;5056806;28;20336;-27
2022/12/27 07:43:26;;;;;;;7.65;2.10;;;;;;;;;;5056544;28;20025;-28
2022/12/27 07:45:52;;;;;;;5.07;2.00;;;;;;;;;;5056687;28;20032;-27
2022/12/27 07:48:18;;;;;;;7.40;2.05;;;;;;;;;;5056655;28;20333;-28
2022/12/27 07:50:53;;;;;;;5.15;2.10;;;;;;;;;;5056780;28;20040;-27
2022/12/27 07:53:19;;;;;;;6.88;2.28;;;;;;;;;;5056272;28;20028;-28
2022/12/27 07:55:45;;;;;;;8.85;3.05;;;;;;;;;;5056561;28;20025;-28
2022/12/27 07:58:12;;;;;;;2.42;1.90;;;;;;;;;;5056537;28;20474;-29
2022/12/27 08:00:38;;;;;;;13.35;2.22;;;;;;;;;;5056560;28;20029;-28
2022/12/27 08:03:05;;;;;;;3.25;2.63;;;;;;;;;;5056039;28;20381;-28
2022/12/27 08:05:31;;;;;;;5.78;2.33;;;;;;;;;;5056236;28;20033;-28
2022/12/27 08:08:00;;;;;;;7.05;2.85;;;;;;;;;;5056229;28;20037;-28
2022/12/27 08:10:27;;;;;;;2.97;2.15;;;;;;;;;;5055454;28;20025;-28
2022/12/27 08:12:53;;;;;;;2.92;1.83;;;;;;;;;;5056080;28;20093;-28
2022/12/27 08:15:20;;;;;;;4.55;2.33;;;;;;;;;;5056248;28;20017;-28
2022/12/27 08:17:46;;;;;;;3.58;2.03;;;;;;;;;;5056480;28;20386;-28
2022/12/27 08:20:15;;;;;;;1.67;1.58;;;;;;;;;;5057127;28;20100;-28
2022/12/27 08:22:41;;;;;;;3.38;2.10;;;;;;;;;;5056232;28;20111;-28
2022/12/27 08:25:08;;;;;;;3.90;2.60;;;;;;;;;;5056077;28;20033;-28
2022/12/27 08:27:34;;;;;;;2.55;1.98;;;;;;;;;;5055849;28;20098;-28
2022/12/27 08:30:00;;;;;;;7.50;2.25;;;;;;;;;;5055786;28;20029;-28
2022/12/27 08:32:27;;;;;;;7.90;2.20;;;;;;;;;;5055701;28;20033;-28
2022/12/27 08:34:53;;;;;;;7.60;2.75;;;;;;;;;;5055599;28;20094;-30
2022/12/27 08:37:19;;;;;;;5.82;2.42;;;;;;;;;;5055616;28;20025;-28
2022/12/27 08:39:45;;;;;;;10.65;2.15;;;;;;;;;;5054412;28;20078;-28
2022/12/27 08:42:12;;;;;;;3.70;2.15;;;;;;;;;;5055433;28;20043;-28
2022/12/27 08:44:38;;;;;;;9.20;2.53;;;;;;;;;;5055404;28;20040;-28
2022/12/27 08:47:04;;;;;;;4.00;2.20;;;;;;;;;;5055341;28;20037;-28
2022/12/27 08:49:31;;;;;;;2.42;1.80;;;;;;;;;;5055418;28;20476;-28
2022/12/27 08:51:57;;;;;;;3.85;2.30;;;;;;;;;;5054246;28;20025;-29
2022/12/27 08:54:23;;;;;;;11.40;2.53;;;;;;;;;;5055316;28;20403;-29
2022/12/27 08:56:49;;;;;;;4.70;2.42;;;;;;;;;;5055550;28;20079;-29
2022/12/27 08:59:16;;;;;;;13.23;2.55;;;;;;;;;;5054231;28;20025;-29
2022/12/27 09:01:42;;;;;;;6.05;2.30;;;;;;;;;;5054152;28;20029;-29
2022/12/27 09:04:08;;;;;;;7.20;2.15;;;;;;;;;;5054344;28;20072;-29
2022/12/27 09:06:34;;;;;;;7.03;2.00;;;;;;;;;;5055404;28;20029;-30
2022/12/27 09:09:00;;;;;;;3.97;2.40;;;;;;;;;;5054921;28;20036;-29
2022/12/27 09:11:28;;;;;;;4.93;2.50;;;;;;;;;;5055148;28;20021;-29
2022/12/27 09:13:55;;;;;;;9.00;2.97;;;;;;;;;;5053799;28;20075;-29
2022/12/27 09:16:23;;;;;;;5.70;2.15;;;;;;;;;;5053905;28;20025;-29
2022/12/27 09:18:50;;;;;;;12.68;2.28;;;;;;;;;;5054861;28;20067;-29
2022/12/27 09:21:16;;;;;;;9.93;3.00;;;;;;;;;;5054855;28;20066;-29
2022/12/27 09:23:43;;;;;;;8.45;2.45;;;;;;;;;;5054655;28;20134;-29
2022/12/27 09:26:11;;;;;;;14.45;3.10;;;;;;;;;;5054598;28;20029;-29
2022/12/27 09:28:37;;;;;;;7.60;2.50;;;;;;;;;;5054707;28;20452;-29
2022/12/27 09:31:03;;;;;;;11.73;2.50;;;;;;;;;;5053575;28;20036;-29
2022/12/27 09:33:30;;;;;;;3.47;2.28;;;;;;;;;;5054376;28;20032;-29
2022/12/27 09:36:07;;;;;;;11.75;2.78;;;;;;;;;;5054854;28;20021;-29
2022/12/27 09:38:33;;;;;;;10.98;3.47;;;;;;;;;;5054792;28;20021;-29
2022/12/27 09:41:03;;;;;;;10.05;3.05;;;;;;;;;;5053610;28;20029;-29
2022/12/27 09:44:02;;;;;;;16.23;2.88;;;;;;;;;;5054565;28;20053;-29
2022/12/27 09:46:32;;;;;;;3.67;2.40;;;;;;;;;;5021774;28;20041;-29
2022/12/27 09:48:58;;;;;;;6.93;2.73;;;;;;;;;;5054551;28;20032;-29
2022/12/27 09:51:28;;;;;;;10.00;2.20;;;;;;;;;;5054520;28;20029;-30
2022/12/27 09:54:11;;;;;;;8.77;2.33;;;;;;;;;;5054302;28;20053;-28
2022/12/27 09:56:37;;;;;;;6.82;3.17;;;;;;;;;;5054256;28;20059;-29
2022/12/27 09:59:36;;;;;;;7.78;2.42;;;;;;;;;;5054246;28;20108;-29
2022/12/27 10:02:02;;;;;;;5.85;2.88;;;;;;;;;;5021440;28;20037;-30
2022/12/27 10:04:31;;;;;;;5.38;3.15;;;;;;;;;;5054167;28;20041;-29
2022/12/27 10:07:06;;;;;;;9.55;2.63;;;;;;;;;;5054774;28;20063;-29
2022/12/27 10:09:42;;;;;;;5.43;2.65;;;;;;;;;;5054648;28;20106;-29
2022/12/27 10:12:08;;;;;;;5.40;1.80;;;;;;;;;;5054147;28;20056;-29
2022/12/27 10:14:46;;;;;;;4.28;2.72;;;;;;;;;;5053248;28;20040;-29
2022/12/27 10:17:31;;;;;;;7.20;2.90;;;;;;;;;;5056809;28;20033;-29
2022/12/27 10:19:57;;;;;;;8.77;2.60;;;;;;;;;;5058741;28;20021;-29
2022/12/27 10:22:33;;;;;;;9.82;3.42;;;;;;;;;;5058267;28;20032;-29
2022/12/27 10:25:00;;;;;;;7.43;3.25;;;;;;;;;;5059142;28;20111;-29
2022/12/27 10:27:27;;;;;;;5.22;2.63;;;;;;;;;;5058462;28;20104;-29
2022/12/27 10:29:55;;;;;;;7.53;2.30;;;;;;;;;;5058065;28;20029;-29
2022/12/27 10:32:21;;;;;;;6.32;2.45;;;;;;;;;;5057882;28;20064;-29
2022/12/27 10:34:50;;;;;;;3.97;2.00;;;;;;;;;;5058069;28;20397;-29
2022/12/27 10:37:16;;;;;;;6.53;2.72;;;;;;;;;;5058137;28;20029;-29
2022/12/27 10:39:42;;;;;;;5.05;2.75;;;;;;;;;;5056866;28;20071;-29
2022/12/27 10:42:30;;;;;;;10.80;2.63;;;;;;;;;;5057809;28;20032;-29
2022/12/27 10:45:15;;;;;;;11.57;2.58;;;;;;;;;;5058120;28;20029;-29
2022/12/27 10:47:41;;;;;;;7.60;2.63;;;;;;;;;;5057954;28;20021;-30
2022/12/27 10:50:11;;;;;;;8.45;2.70;;;;;;;;;;5057892;28;20032;-29
2022/12/27 10:52:37;;;;;;;9.02;2.58;;;;;;;;;;5057556;28;20035;-29
2022/12/27 10:55:03;;;;;;;6.00;2.55;;;;;;;;;;5057916;28;20047;-29
2022/12/27 10:57:32;;;;;;;7.18;2.33;;;;;;;;;;5057539;28;20055;-30
2022/12/27 11:00:18;;;;;;;3.75;2.10;;;;;;;;;;5057127;28;20482;-29
2022/12/27 11:02:50;;;;;;;10.15;2.72;;;;;;;;;;5057088;28;20348;-28
2022/12/27 11:05:30;;;;;;;11.52;2.55;;;;;;;;;;5057539;28;20111;-28
2022/12/27 11:07:56;;;;;;;7.70;3.22;;;;;;;;;;5057253;28;20486;-27
2022/12/27 11:10:24;;;;;;;11.60;3.70;;;;;;;;;;5057181;28;20063;-28
2022/12/27 11:12:56;;;;;;;6.32;3.05;;;;;;;;;;5057075;28;20045;-28
2022/12/27 11:15:23;;;;;;;8.60;2.50;;;;;;;;;;5057513;28;20436;-28
2022/12/27 11:18:00;;;;;;;6.53;2.92;;;;;;;;;;5057283;28;20032;-28
2022/12/27 11:20:28;;;;;;;7.25;2.95;;;;;;;;;;5057404;28;20059;-28
2022/12/27 11:22:57;;;;;;;16.70;3.03;;;;;;;;;;5056367;28;20075;-28
2022/12/27 11:25:25;;;;;;;12.00;2.95;;;;;;;;;;5057169;28;20045;-28
2022/12/27 11:27:53;;;;;;;11.55;2.80;;;;;;;;;;5056584;28;20033;-28
2022/12/27 11:30:25;;;;;;;14.45;4.47;;;;;;;;;;5057151;28;20029;-27
2022/12/27 11:32:50;;;;;;;;;;;;;;;;;;5056057;28;20104;-28
2022/12/27 11:35:19;;;;;;;24.27;3.80;;;;;;;;;;5056788;28;20339;-27
2022/12/27 11:37:46;;;;;;;23.00;5.20;;;;;;;;;;5056979;28;20356;-28
2022/12/27 11:40:29;;;;;;;11.40;3.13;;;;;;;;;;5056834;28;20024;-28
2022/12/27 11:43:02;;;;;;;12.55;3.05;;;;;;;;;;5056800;28;20360;-27
2022/12/27 11:45:33;;;;;;;10.55;3.05;;;;;;;;;;5056914;28;20483;-28
2022/12/27 11:48:07;;;;;;;11.32;2.95;;;;;;;;;;5056812;28;20037;-27
2022/12/27 11:50:35;;;;;;;8.90;3.40;;;;;;;;;;5056871;28;20029;-28
2022/12/27 11:53:20;;;;;;;12.00;3.03;;;;;;;;;;5056438;28;20025;-28
2022/12/27 11:55:56;;;;;;;7.05;3.42;;;;;;;;;;5056427;28;20048;-28
2022/12/27 11:58:38;;;;;;;8.38;2.70;;;;;;;;;;5056401;28;20021;-29
2022/12/27 12:01:07;;;;;;;10.43;2.60;;;;;;;;;;5056535;28;20101;-28
2022/12/27 12:03:33;;;;;;;9.05;3.63;;;;;;;;;;5056125;28;20055;-28
2022/12/27 12:06:08;;;;;;;4.97;3.42;;;;;;;;;;5055400;28;20056;-28
2022/12/27 12:08:53;;;;;;;18.00;3.53;;;;;;;;;;5055423;28;20044;-28
2022/12/27 12:11:42;;;;;;;8.80;3.20;;;;;;;;;;5056327;28;20025;-28
2022/12/27 12:14:27;;;;;;;19.88;2.88;;;;;;;;;;5048362;28;20110;-28
2022/12/27 12:16:53;;;;;;;8.82;2.83;;;;;;;;;;5057215;28;20033;-28
2022/12/27 12:19:38;;;;;;;9.88;3.50;;;;;;;;;;5056499;28;20025;-28
2022/12/27 12:22:22;;;;;;;10.32;2.80;;;;;;;;;;5056105;28;20057;-30
2022/12/27 12:24:49;;;;;;;7.68;2.67;;;;;;;;;;5056416;28;20039;-30
2022/12/27 12:27:15;;;;;;;9.55;4.00;;;;;;;;;;5055034;28;20027;-30
2022/12/27 12:30:00;;;;;;;11.10;2.92;;;;;;;;;;5055921;28;20102;-30
2022/12/27 12:32:45;;;;;;;13.00;2.70;;;;;;;;;;5055683;28;20032;-30
2022/12/27 12:35:17;;;;;;;11.48;3.22;;;;;;;;;;5056133;28;20108;-30
2022/12/27 12:38:12;;;;;;;9.27;2.85;;;;;;;;;;5056088;28;20033;-30
2022/12/27 12:40:39;;;;;;;6.25;2.60;;;;;;;;;;5001935;28;20035;-30
2022/12/27 12:43:40;;;;;;;5.93;2.75;;;;;;;;;;5055787;28;20055;-30
2022/12/27 12:46:25;;;;;;;8.70;3.05;;;;;;;;;;4978423;28;20038;-29
2022/12/27 12:48:51;;;;;;;12.25;2.83;;;;;;;;;;5050879;28;20048;-29
2022/12/27 12:51:17;;;;;;;10.15;3.72;;;;;;;;;;5055638;28;20100;-30
2022/12/27 12:53:55;;;;;;;11.13;2.97;;;;;;;;;;5055181;28;20369;-30
2022/12/27 12:56:42;;;;;;;8.18;2.97;;;;;;;;;;5055617;28;20061;-30
2022/12/27 12:59:14;;;;;;;15.55;3.28;;;;;;;;;;5055132;28;20460;-29
2022/12/27 13:01:51;;;;;;;15.95;3.97;;;;;;;;;;5055197;28;20348;-30
2022/12/27 13:04:36;;;;;;;15.18;3.20;;;;;;;;;;5055189;28;20037;-30
2022/12/27 13:07:08;;;;;;;17.20;3.25;;;;;;;;;;5055365;28;20041;-29
2022/12/27 13:09:37;;;;;;;19.63;3.30;;;;;;;;;;5055012;28;20045;-29
2022/12/27 13:12:22;;;;;;;9.73;3.97;;;;;;;;;;5054816;28;20047;-29
2022/12/27 13:14:58;;;;;;;16.88;3.53;;;;;;;;;;5055147;28;20028;-30
2022/12/27 13:17:30;;;;;;;12.30;3.50;;;;;;;;;;5054828;28;20044;-30
2022/12/27 13:20:00;;;;;;;8.77;3.65;;;;;;;;;;5055069;28;20044;-30
2022/12/27 13:22:44;;;;;;;12.85;4.18;;;;;;;;;;5054831;28;20032;-30
2022/12/27 13:25:16;;;;;;;8.82;2.80;;;;;;;;;;5055048;28;20071;-30
2022/12/27 13:27:49;;;;;;;12.77;4.60;;;;;;;;;;5054792;28;20025;-30
2022/12/27 13:30:22;;;;;;;8.48;3.92;;;;;;;;;;5054705;28;20036;-30
2022/12/27 13:32:48;;;;;;;8.75;3.65;;;;;;;;;;5054635;28;20033;-30
2022/12/27 13:35:17;;;;;;;7.38;2.50;;;;;;;;;;5054911;28;20059;-30
2022/12/27 13:37:49;;;;;;;22.20;3.78;;;;;;;;;;5054902;28;20025;-30
2022/12/27 13:40:15;;;;;;;8.68;2.97;;;;;;;;;;5054614;28;20028;-30
2022/12/27 13:42:41;;;;;;;10.35;2.92;;;;;;;;;;5054352;28;20029;-30
2022/12/27 13:45:09;;;;;;;15.18;3.80;;;;;;;;;;5054582;28;20021;-29
2022/12/27 13:47:41;;;;;;;7.18;2.42;;;;;;;;;;5054432;28;20036;-30
2022/12/27 13:50:17;;;;;;;7.80;2.80;;;;;;;;;;5054565;28;20387;-30
2022/12/27 13:52:46;;;;;;;10.80;3.15;;;;;;;;;;5054190;28;20448;-29
2022/12/27 13:55:12;;;;;;;9.43;3.00;;;;;;;;;;5054585;28;20032;-30
2022/12/27 13:57:50;;;;;;;11.95;3.45;;;;;;;;;;5054474;28;20033;-29
2022/12/27 14:00:19;;;;;;;10.40;2.80;;;;;;;;;;5054634;28;20028;-30
2022/12/27 14:03:04;;;;;;;10.80;4.20;;;;;;;;;;5054034;28;20045;-30
2022/12/27 14:05:49;;;;;;;10.18;2.90;;;;;;;;;;5054601;28;20175;-30
2022/12/27 14:08:20;;;;;;;24.85;4.03;;;;;;;;;;5054353;28;20029;-30
2022/12/27 14:10:50;;;;;;;7.00;2.95;;;;;;;;;;5055083;28;20036;-30
2022/12/27 14:13:28;;;;;;;7.93;3.03;;;;;;;;;;5054376;28;20108;-30
2022/12/27 14:16:00;;;;;;;7.95;2.55;;;;;;;;;;5054556;28;20036;-30
2022/12/27 14:18:26;;;;;;;8.57;3.47;;;;;;;;;;5054431;28;20025;-30
2022/12/27 14:20:56;;;;;;;11.55;3.00;;;;;;;;;;5054170;28;20045;-30
2022/12/27 14:23:30;;;;;;;12.93;3.33;;;;;;;;;;5054152;28;20118;-30
2022/12/27 14:25:56;;;;;;;8.07;3.05;;;;;;;;;;5054170;28;20367;-30
2022/12/27 14:28:31;;;;;;;15.10;3.53;;;;;;;;;;5054115;28;20021;-30
2022/12/27 14:30:57;;;;;;;12.10;3.35;;;;;;;;;;5054178;28;20104;-30
2022/12/27 14:33:27;;;;;;;13.70;2.72;;;;;;;;;;5053972;28;20028;-29
2022/12/27 14:35:56;;;;;;;12.18;3.13;;;;;;;;;;5053171;28;20431;-30
2022/12/27 14:38:37;;;;;;;12.07;3.22;;;;;;;;;;5054045;28;20025;-29
2022/12/27 14:41:23;;;;;;;11.90;3.03;;;;;;;;;;5054291;28;20087;-30
2022/12/27 14:44:09;;;;;;;12.15;2.50;;;;;;;;;;5054283;28;20120;-30
2022/12/27 14:46:53;;;;;;;5.38;2.70;;;;;;;;;;5054817;28;20343;-30
2022/12/27 14:49:35;;;;;;;14.32;3.47;;;;;;;;;;5054247;28;20036;-30
2022/12/27 14:52:16;;;;;;;8.95;3.90;;;;;;;;;;5053757;28;20059;-30
2022/12/27 14:54:42;;;;;;;7.05;2.70;;;;;;;;;;5054242;28;20025;-28
2022/12/27 14:57:28;;;;;;;8.90;3.03;;;;;;;;;;5053866;28;20017;-27
2022/12/27 15:00:01;;;;;;;17.92;4.80;;;;;;;;;;5054084;28;20059;-29
2022/12/27 15:02:33;;;;;;;12.32;4.00;;;;;;;;;;5054717;28;20045;-30
2022/12/27 15:05:10;;;;;;;9.20;2.83;;;;;;;;;;5057971;28;20044;-30
2022/12/27 15:07:40;;;;;;;8.80;3.05;;;;;;;;;;5057847;28;20104;-30
2022/12/27 15:10:32;;;;;;;8.45;3.03;;;;;;;;;;5057810;28;20040;-30
2022/12/27 15:13:17;;;;;;;11.27;3.05;;;;;;;;;;5034349;28;20049;-29
2022/12/27 15:15:46;;;;;;;7.78;2.65;;;;;;;;;;5056468;28;20029;-30
2022/12/27 15:18:18;;;;;;;11.15;3.33;;;;;;;;;;5057357;28;20471;-30
2022/12/27 15:20:44;;;;;;;11.75;2.50;;;;;;;;;;5057311;28;20044;-30
2022/12/27 15:23:10;;;;;;;7.65;3.33;;;;;;;;;;5057340;28;20021;-29
2022/12/27 15:25:50;;;;;;;8.65;2.85;;;;;;;;;;5056248;28;20045;-30
2022/12/27 15:28:16;;;;;;;7.55;2.83;;;;;;;;;;5057228;28;20040;-30
2022/12/27 15:31:00;;;;;;;10.88;3.08;;;;;;;;;;5057382;28;20053;-30
2022/12/27 15:33:32;;;;;;;13.23;3.45;;;;;;;;;;5056818;28;20037;-30
2022/12/27 15:36:13;;;;;;;9.38;2.97;;;;;;;;;;5057395;28;20036;-30
2022/12/27 15:38:40;;;;;;;11.50;3.17;;;;;;;;;;5057500;28;20021;-30
2022/12/27 15:41:06;;;;;;;10.63;3.40;;;;;;;;;;5057292;28;20036;-30
2022/12/27 15:43:35;;;;;;;15.63;4.18;;;;;;;;;;5056882;28;20039;-30
2022/12/27 15:46:04;;;;;;;6.22;2.80;;;;;;;;;;5057114;28;20080;-30
2022/12/27 15:48:30;;;;;;;11.77;2.95;;;;;;;;;;5057009;28;20431;-30
2022/12/27 15:50:59;;;;;;;16.42;3.42;;;;;;;;;;5056978;28;20037;-30
2022/12/27 15:53:32;;;;;;;19.15;3.88;;;;;;;;;;5056529;28;20471;-30
2022/12/27 15:56:16;;;;;;;10.95;3.00;;;;;;;;;;5056687;28;20466;-29
2022/12/27 15:58:42;;;;;;;9.93;4.00;;;;;;;;;;5056666;28;20036;-30
2022/12/27 16:01:15;;;;;;;12.85;2.65;;;;;;;;;;5055634;28;20455;-30
2022/12/27 16:03:42;;;;;;;6.10;2.50;;;;;;;;;;5056318;28;20052;-30
2022/12/27 16:06:28;;;;;;;18.67;3.17;;;;;;;;;;5056448;28;20044;-28
2022/12/27 16:09:13;;;;;;;6.97;2.80;;;;;;;;;;5056255;28;20341;-28
2022/12/27 16:11:59;;;;;;;7.25;2.88;;;;;;;;;;5056265;28;20037;-29
2022/12/27 16:14:30;;;;;;;7.90;3.55;;;;;;;;;;5056112;28;20029;-29
2022/12/27 16:17:02;;;;;;;7.30;2.35;;;;;;;;;;5056428;28;20470;-29
2022/12/27 16:19:41;;;;;;;8.07;3.65;;;;;;;;;;5056408;28;20051;-29
2022/12/27 16:22:21;;;;;;;4.40;2.63;;;;;;;;;;5056280;28;20096;-29
2022/12/27 16:24:47;;;;;;;9.60;2.67;;;;;;;;;;5056383;28;20024;-29
2022/12/27 16:27:22;;;;;;;5.68;3.00;;;;;;;;;;5055926;28;20063;-29
2022/12/27 16:29:48;;;;;;;8.10;2.92;;;;;;;;;;5055936;28;20040;-29
2022/12/27 16:32:16;;;;;;;7.65;3.35;;;;;;;;;;5055709;28;20021;-29
2022/12/27 16:34:44;;;;;;;9.43;3.08;;;;;;;;;;5056156;28;20017;-28
2022/12/27 16:37:27;;;;;;;7.45;2.92;;;;;;;;;;5056123;28;20025;-28
2022/12/27 16:39:53;;;;;;;9.10;2.95;;;;;;;;;;5055837;28;20040;-29